Vail, CO (81657)

5:56 PM MST on December 04, 2016 (GMT -0700)
Sitzmark Lodge Vail Village | | Change Station
Active Advisory: Winter Weather Advisory

Elev 8189 ft 39.64 °N, 106.38 °W | Updated 9 seconds ago

Scattered Clouds
Scattered Clouds
27.0 °F
Feels Like 27 °F
N
0.0
Wind Variable Wind from SSW

Today
High -- | Low -- °F
--% Chance of Precip.
Yesterday
High -- | Low -- °F
Precip. -- in
Pressure 29.96 in
Visibility 10.0 miles
Clouds Scattered Clouds 8000 ft
Windchill 27 °F
Dew Point 17 °F
Humidity 66%
Rainfall 0.00 in
Snow Depth Not available.
7:10 AM 4:41 PM
Waxing Crescent, 27% visible
METAR K20V 050035Z AUTO 06004KT 10SM SCT080 M05/M10 A2996 RMK AO2
Pressure 29.96 in
Visibility 10.0 miles
Clouds Scattered Clouds 8000 ft
Windchill 27 °F
Dew Point 17 °F
Humidity 66%
Rainfall 0.00 in
Snow Depth Not available.
7:10 AM 4:41 PM
Waxing Crescent, 27% visible
METAR K20V 050035Z AUTO 06004KT 10SM SCT080 M05/M10 A2996 RMK AO2

10-Day Weather Forecast

Almanac

Astronomy

Dec. 04, 2016 Rise Set
Actual Time
Civil Twilight
Nautical Twilight
Astronomical Twilight
Moon
Length of Visible Light
Length of Day
Tomorrow will be .
, % of the Moon is Illuminated

Today's Extremes

State Highs State Lows

Community

WunderPhotos

Upload Photos

1,955,729 photos uploaded!

WunderBlog® & News

Nearby

Air Quality

  Air Quality AQ Index Pollutant
Not available.

Snow Depth

Station Depth Elevation

Earthquake Activity

City Distance Mag. Time & Date
Minimum magnitude displayed is 2.5.

Coastal Water Temperatures

Place Temperature

Stations

Nearby Weather Stations

Station Location Temp. Windchill Dew Point Humidity Wind Precip. Elev Updated Type
                   

Watches & Warnings

Winter Weather Advisory
Issued: 3:14 PM MST Dec. 4, 2016 – National Weather Service

... Winter Weather Advisory in effect from 6 PM Monday to 6 am MST
Wednesday...

The National Weather Service in Grand Junction has issued a
Winter Weather Advisory for snow and blowing snow... which is in
effect from 6 PM Monday to 6 am MST Wednesday. The Winter Storm
Watch is no longer in effect.

* Locations include the cities of... Aspen... Vail... Snowmass.

* Timing... snow will begin Monday afternoon and continue
intermittently through Tuesday night.

* Snow accumulation... 4 to 8 inches with locally higher amounts
north of Interstate 70 and along west facing slopes.

* Winds... west 10 to 20 mph with gusts up to 35 mph.

* Impacts... low visibility in periods of snow and blowing snow
will make travel difficult with hazardous conditions expected
over Vail Pass Monday night through Tuesday.

Precautionary/preparedness actions...

A Winter Weather Advisory means that periods of snow and/or
blowing snow will cause travel difficulties. Be prepared for
slippery roads and limited visibilities... and use caution while
driving.